createdAt,value
2019-05-13T00:02:14.288Z,8.70
2019-05-13T00:04:44.237Z,8.43
2019-05-13T00:07:13.666Z,8.48
2019-05-13T00:09:44.237Z,8.55
2019-05-13T00:12:13.826Z,8.97
2019-05-13T00:14:43.454Z,9.11
2019-05-13T00:17:14.604Z,8.97
2019-05-13T00:19:44.317Z,8.48
2019-05-13T00:22:14.138Z,7.68
2019-05-13T00:24:44.326Z,7.42
2019-05-13T00:27:14.219Z,7.26
2019-05-13T00:29:44.401Z,7.22
2019-05-13T00:32:14.017Z,7.14
2019-05-13T00:35:03.819Z,7.25
2019-05-13T00:37:51.106Z,7.53
2019-05-13T00:40:39.374Z,7.77
2019-05-13T00:43:27.588Z,7.87
2019-05-13T00:46:15.826Z,8.02
2019-05-13T00:49:04.742Z,7.84
2019-05-13T00:51:53.890Z,7.74
2019-05-13T00:54:44.181Z,7.64
2019-05-13T00:57:31.631Z,7.86
2019-05-13T01:00:20.280Z,8.12
2019-05-13T01:03:08.091Z,8.06
2019-05-13T01:05:56.135Z,8.26
2019-05-13T01:08:44.554Z,8.17
2019-05-13T01:11:34.297Z,7.88
2019-05-13T01:14:23.508Z,7.63
2019-05-13T01:17:14.175Z,7.35
2019-05-13T01:20:03.984Z,6.92
2019-05-13T01:22:51.063Z,6.73
2019-05-13T01:25:39.477Z,6.92
2019-05-13T01:28:27.920Z,7.00
2019-05-13T01:31:16.527Z,7.28
2019-05-13T01:34:07.072Z,7.33
2019-05-13T01:36:55.104Z,7.47
2019-05-13T01:39:43.752Z,7.53
2019-05-13T01:42:33.656Z,7.22
2019-05-13T01:45:24.075Z,7.23
2019-05-13T01:48:14.210Z,7.09
2019-05-13T01:51:03.572Z,6.98
2019-05-13T01:53:52.880Z,7.01
2019-05-13T01:56:39.891Z,6.71
2019-05-13T01:59:28.087Z,6.62
2019-05-13T02:02:17.004Z,6.59
2019-05-13T02:05:05.519Z,6.77
2019-05-13T02:07:59.829Z,6.89
2019-05-13T02:10:56.335Z,7.07
2019-05-13T02:13:44.700Z,6.91
2019-05-13T02:16:33.930Z,6.92
2019-05-13T02:19:24.291Z,6.94
2019-05-13T02:22:14.399Z,7.08
2019-05-13T02:25:00.998Z,7.53
2019-05-13T02:27:49.484Z,7.84
2019-05-13T02:30:37.870Z,8.12
2019-05-13T02:33:25.956Z,8.31
2019-05-13T02:36:14.322Z,8.44
2019-05-13T02:39:02.718Z,8.55
2019-05-13T02:41:52.736Z,8.51
2019-05-13T02:44:43.471Z,8.59
2019-05-13T02:47:33.091Z,8.52
2019-05-13T02:50:22.337Z,8.68
2019-05-13T02:53:08.908Z,8.66
2019-05-13T02:55:57.396Z,8.42
2019-05-13T02:58:46.024Z,7.89
2019-05-13T03:01:34.461Z,7.65
2019-05-13T03:04:23.411Z,7.42
2019-05-13T03:07:11.969Z,7.35
2019-05-13T03:10:03.968Z,7.41
2019-05-13T03:12:53.160Z,7.57
2019-05-13T03:16:04.824Z,7.57
2019-05-13T03:18:52.713Z,7.95
2019-05-13T03:21:43.003Z,8.10
2019-05-13T03:24:32.938Z,8.31
2019-05-13T03:27:20.701Z,8.33
2019-05-13T03:30:08.733Z,8.41
2019-05-13T03:33:02.074Z,8.57
2019-05-13T03:35:46.534Z,8.27
2019-05-13T03:38:53.757Z,8.04
2019-05-13T03:41:26.970Z,7.94
2019-05-13T03:44:16.733Z,8.11
2019-05-13T03:47:05.413Z,8.18
2019-05-13T03:49:56.197Z,8.57
2019-05-13T03:52:43.891Z,8.52
2019-05-13T03:55:34.138Z,8.65
2019-05-13T03:58:23.909Z,8.42
2019-05-13T04:01:13.303Z,8.37
2019-05-13T04:04:03.238Z,8.70
2019-05-13T04:06:53.108Z,8.79
2019-05-13T04:09:42.540Z,8.83
2019-05-13T04:12:33.348Z,9.12
2019-05-13T04:15:23.456Z,9.45
2019-05-13T04:18:12.504Z,9.61
2019-05-13T04:21:02.801Z,9.64
2019-05-13T04:23:49.155Z,9.55
2019-05-13T04:26:37.617Z,9.52
2019-05-13T04:29:25.601Z,9.66
2019-05-13T04:32:14.439Z,9.77
2019-05-13T04:35:03.798Z,9.74
2019-05-13T04:37:52.905Z,9.81
2019-05-13T04:40:42.442Z,9.88
2019-05-13T04:43:34.589Z,9.87
2019-05-13T04:46:22.727Z,10.01
2019-05-13T04:49:12.409Z,10.01
2019-05-13T04:52:02.871Z,10.10
2019-05-13T04:54:48.324Z,10.18
2019-05-13T04:57:36.700Z,10.48
2019-05-13T05:00:50.117Z,10.71
2019-05-13T05:03:45.968Z,10.70
2019-05-13T05:06:53.449Z,10.98
2019-05-13T05:10:13.089Z,10.96
2019-05-13T05:13:09.099Z,10.57
2019-05-13T05:16:14.144Z,10.58
2019-05-13T05:19:06.955Z,10.32
2019-05-13T05:21:58.319Z,10.42
2019-05-13T05:25:06.113Z,10.81
2019-05-13T05:28:06.100Z,11.35
2019-05-13T05:31:11.610Z,11.60
2019-05-13T05:34:18.294Z,11.82
2019-05-13T05:37:14.456Z,11.79
2019-05-13T05:40:03.810Z,12.08
2019-05-13T05:42:52.978Z,12.20
2019-05-13T05:45:41.401Z,12.55
2019-05-13T05:48:31.496Z,12.74
2019-05-13T05:51:21.976Z,12.71
2019-05-13T05:54:14.308Z,12.66
2019-05-13T05:57:01.275Z,12.73
2019-05-13T05:59:51.743Z,12.31
2019-05-13T06:02:42.522Z,12.14
2019-05-13T06:05:12.640Z,11.75
2019-05-13T06:07:42.264Z,11.90
2019-05-13T06:10:11.848Z,12.11
2019-05-13T06:12:42.396Z,11.68
2019-05-13T06:15:12.386Z,11.49
2019-05-13T06:17:41.809Z,11.10
2019-05-13T06:20:13.433Z,11.32
2019-05-13T06:22:42.636Z,11.55
2019-05-13T06:25:14.512Z,11.84
2019-05-13T06:27:43.176Z,12.19
2019-05-13T06:30:12.792Z,12.34
2019-05-13T06:32:42.241Z,12.55
2019-05-13T06:35:11.986Z,12.74
2019-05-13T06:37:41.582Z,12.80
2019-05-13T06:40:12.380Z,12.83
2019-05-13T06:42:41.938Z,13.02
2019-05-13T06:45:12.442Z,13.12
2019-05-13T06:47:41.831Z,13.33
2019-05-13T06:50:11.811Z,13.26
2019-05-13T06:52:42.426Z,13.02
2019-05-13T06:55:12.094Z,13.19
2019-05-13T06:57:42.293Z,13.34
2019-05-13T07:00:12.356Z,13.45
2019-05-13T07:02:42.745Z,13.42
2019-05-13T07:05:12.265Z,13.61
2019-05-13T07:07:42.364Z,13.88
2019-05-13T07:10:12.689Z,14.13
2019-05-13T07:12:42.408Z,14.25
2019-05-13T07:15:11.748Z,14.59
2019-05-13T07:17:41.691Z,14.63
2019-05-13T07:20:11.755Z,14.89
2019-05-13T07:22:42.208Z,15.01
2019-05-13T07:25:11.858Z,15.14
2019-05-13T07:27:42.369Z,15.14
2019-05-13T07:30:11.909Z,15.24
2019-05-13T07:32:42.052Z,15.46
2019-05-13T07:35:14.144Z,15.28
2019-05-13T07:37:42.611Z,15.35
2019-05-13T07:40:12.240Z,15.31
2019-05-13T07:42:42.044Z,15.63
2019-05-13T07:45:12.124Z,15.77
2019-05-13T07:47:42.036Z,16.03
2019-05-13T07:50:12.670Z,16.16
2019-05-13T07:52:42.455Z,16.02
2019-05-13T07:55:12.168Z,15.97
2019-05-13T07:57:42.416Z,15.91
2019-05-13T08:00:12.706Z,15.36
2019-05-13T08:02:42.073Z,15.29
2019-05-13T08:05:12.150Z,15.29
2019-05-13T08:07:42.180Z,15.66
2019-05-13T08:10:11.993Z,15.63
2019-05-13T08:12:41.371Z,15.69
2019-05-13T08:15:12.157Z,15.68
2019-05-13T08:17:47.292Z,15.41
2019-05-13T08:20:12.797Z,15.62
2019-05-13T08:22:42.589Z,15.72
2019-05-13T08:25:12.679Z,15.96
2019-05-13T08:27:42.263Z,16.24
2019-05-13T08:30:12.117Z,16.50
2019-05-13T08:32:42.060Z,16.68
2019-05-13T08:35:12.497Z,16.90
2019-05-13T08:37:41.991Z,17.07
2019-05-13T08:40:12.211Z,17.10
2019-05-13T08:42:41.706Z,17.27
2019-05-13T08:45:12.120Z,17.16
2019-05-13T08:47:42.122Z,17.18
2019-05-13T08:50:12.321Z,17.11
2019-05-13T08:52:42.297Z,16.96
2019-05-13T08:55:15.486Z,16.77
2019-05-13T08:57:42.791Z,16.88
2019-05-13T09:00:13.698Z,16.80
2019-05-13T09:02:43.610Z,16.80
2019-05-13T09:05:14.290Z,16.72
2019-05-13T09:07:43.558Z,16.95
2019-05-13T09:10:12.933Z,17.04
2019-05-13T09:12:43.414Z,17.36
2019-05-13T09:15:12.825Z,17.67
2019-05-13T09:17:42.563Z,17.80
2019-05-13T09:20:12.183Z,17.91
2019-05-13T09:22:41.435Z,18.01
2019-05-13T09:25:12.495Z,18.23
2019-05-13T09:27:42.492Z,18.38
2019-05-13T09:30:12.400Z,18.42
2019-05-13T09:32:42.568Z,18.30
2019-05-13T09:35:12.379Z,18.42
2019-05-13T09:37:42.309Z,18.59
2019-05-13T09:40:11.800Z,18.48
2019-05-13T09:42:49.257Z,18.46
2019-05-13T09:45:12.431Z,18.60
2019-05-13T09:47:42.004Z,18.62
2019-05-13T09:50:28.590Z,18.55
2019-05-13T09:52:48.172Z,18.35
2019-05-13T09:55:26.300Z,18.25
2019-05-13T09:57:48.600Z,18.24
2019-05-13T10:00:18.128Z,18.38
2019-05-13T10:02:47.367Z,18.11
2019-05-13T10:05:16.622Z,18.10
2019-05-13T10:07:45.896Z,18.20
2019-05-13T10:10:16.636Z,18.48
2019-05-13T10:13:07.052Z,18.78
2019-05-13T10:15:16.858Z,18.62
2019-05-13T10:17:46.090Z,18.45
2019-05-13T10:20:16.769Z,18.45
2019-05-13T10:22:46.049Z,18.63
2019-05-13T10:25:16.789Z,18.56
2019-05-13T10:27:46.287Z,18.68
2019-05-13T10:30:15.985Z,18.83
2019-05-13T10:32:45.217Z,18.88
2019-05-13T10:35:14.860Z,18.98
2019-05-13T10:37:45.061Z,19.20
2019-05-13T10:40:15.001Z,19.05
2019-05-13T10:42:44.251Z,18.88
2019-05-13T10:45:13.565Z,18.73
2019-05-13T10:47:42.808Z,18.78
2019-05-13T10:50:12.244Z,18.94
2019-05-13T10:52:42.706Z,19.21
2019-05-13T10:55:12.975Z,18.90
2019-05-13T10:57:42.610Z,19.31
2019-05-13T11:00:12.395Z,19.48
2019-05-13T11:02:42.384Z,19.33
2019-05-13T11:05:12.560Z,19.01
2019-05-13T11:07:42.203Z,18.92
2019-05-13T11:10:13.381Z,18.75
2019-05-13T11:12:42.903Z,18.71
2019-05-13T11:15:12.149Z,18.67
2019-05-13T11:17:42.734Z,18.52
2019-05-13T11:20:12.588Z,18.74
2019-05-13T11:22:42.055Z,18.76
2019-05-13T11:25:12.337Z,18.66
2019-05-13T11:27:42.343Z,18.47
2019-05-13T11:30:11.903Z,18.35
2019-05-13T11:32:42.686Z,18.42
2019-05-13T11:35:13.091Z,18.36
2019-05-13T11:37:43.548Z,18.44
2019-05-13T11:40:14.228Z,18.14
2019-05-13T11:42:43.531Z,17.94
2019-05-13T11:45:13.172Z,17.81
2019-05-13T11:47:42.469Z,17.66
2019-05-13T11:50:12.195Z,17.64
2019-05-13T11:52:42.451Z,17.60
2019-05-13T11:55:13.133Z,17.52
2019-05-13T11:57:44.421Z,17.34
2019-05-13T12:00:14.214Z,17.27
2019-05-13T12:02:49.857Z,17.22
2019-05-13T12:05:15.792Z,17.03
2019-05-13T12:07:45.039Z,17.11
2019-05-13T12:10:14.409Z,17.14
2019-05-13T12:12:44.599Z,17.27
2019-05-13T12:15:28.820Z,17.51
2019-05-13T12:17:45.245Z,17.52
2019-05-13T12:20:14.481Z,17.54
2019-05-13T12:22:44.034Z,17.49
2019-05-13T12:25:14.104Z,17.44
2019-05-13T12:27:43.462Z,17.36
2019-05-13T12:30:12.803Z,17.52
2019-05-13T12:32:43.734Z,17.80
2019-05-13T12:35:13.671Z,17.91
2019-05-13T12:37:43.166Z,17.92
2019-05-13T12:40:12.531Z,18.07
2019-05-13T12:42:46.767Z,18.14
2019-05-13T12:45:14.385Z,18.15
2019-05-13T12:47:43.543Z,18.12
2019-05-13T12:50:13.846Z,17.94
2019-05-13T12:52:43.959Z,17.99
2019-05-13T12:55:14.134Z,17.89
2019-05-13T12:57:43.897Z,17.97
2019-05-13T13:00:13.431Z,18.07
2019-05-13T13:02:49.969Z,18.16
2019-05-13T13:05:19.905Z,18.21
2019-05-13T13:08:12.075Z,18.34
2019-05-13T13:10:16.785Z,18.01
2019-05-13T13:12:47.199Z,18.23
2019-05-13T13:15:36.433Z,18.41
2019-05-13T13:17:47.800Z,18.48
2019-05-13T13:20:17.346Z,18.31
2019-05-13T13:22:46.592Z,18.08
2019-05-13T13:25:16.343Z,18.06
2019-05-13T13:28:08.866Z,17.87
2019-05-13T13:30:16.551Z,17.86
2019-05-13T13:32:46.458Z,17.83
2019-05-13T13:35:16.092Z,17.76
2019-05-13T13:37:46.216Z,17.87
2019-05-13T13:40:24.478Z,18.36
2019-05-13T13:42:53.051Z,18.73
2019-05-13T13:45:22.855Z,18.63
2019-05-13T13:48:02.406Z,18.51
2019-05-13T13:52:53.754Z,17.97
2019-05-13T13:55:25.834Z,17.94
2019-05-13T13:57:56.786Z,17.81
2019-05-13T14:00:38.626Z,17.91
2019-05-13T14:02:56.224Z,17.80
2019-05-13T14:05:25.623Z,17.81
2019-05-13T14:06:58.943Z,18.27
2019-05-13T14:07:54.885Z,17.81
2019-05-13T14:10:24.700Z,17.97
2019-05-13T14:12:54.071Z,17.92
2019-05-13T14:15:23.311Z,17.94
2019-05-13T14:17:52.587Z,17.85
2019-05-13T14:20:22.028Z,17.79
2019-05-13T14:22:57.525Z,17.73
2019-05-13T14:25:22.500Z,17.75
2019-05-13T14:27:52.651Z,17.68
2019-05-13T14:30:22.083Z,17.82
2019-05-13T14:32:52.070Z,17.90
2019-05-13T14:35:22.107Z,17.94
2019-05-13T14:37:52.027Z,17.86
2019-05-13T14:40:22.376Z,17.79
2019-05-13T14:42:52.754Z,17.70
2019-05-13T14:45:23.852Z,17.83
2019-05-13T14:47:53.400Z,17.87
2019-05-13T14:50:22.665Z,17.80
2019-05-13T14:52:52.458Z,17.73
2019-05-13T14:55:21.850Z,17.72
2019-05-13T14:57:52.591Z,17.69
2019-05-13T15:00:22.260Z,17.45
2019-05-13T15:02:51.954Z,17.42
2019-05-13T15:05:22.001Z,17.29
2019-05-13T15:07:52.821Z,17.14
2019-05-13T15:10:22.706Z,17.16
2019-05-13T15:12:52.502Z,16.99
2019-05-13T15:15:22.452Z,17.02
2019-05-13T15:17:52.155Z,17.10
2019-05-13T15:20:21.853Z,17.21
2019-05-13T15:22:51.876Z,17.32
2019-05-13T15:25:22.106Z,17.06
2019-05-13T15:27:53.085Z,16.95
2019-05-13T15:30:22.704Z,17.03
2019-05-13T15:32:56.143Z,17.28
2019-05-13T15:35:22.943Z,17.34
2019-05-13T15:37:53.152Z,17.40
2019-05-13T15:40:22.557Z,17.33
2019-05-13T15:42:51.899Z,17.43
2019-05-13T15:45:21.433Z,17.38
2019-05-13T15:47:51.657Z,17.13
2019-05-13T15:50:21.541Z,17.16
2019-05-13T15:52:51.124Z,17.11
2019-05-13T15:55:21.387Z,16.96
2019-05-13T15:57:51.799Z,16.89
2019-05-13T16:00:22.038Z,16.74
2019-05-13T16:02:52.210Z,16.86
2019-05-13T16:05:21.643Z,16.87
2019-05-13T16:07:52.342Z,16.76
2019-05-13T16:10:21.884Z,16.67
2019-05-13T16:12:52.206Z,16.64
2019-05-13T16:15:21.811Z,16.58
2019-05-13T16:17:53.111Z,16.51
2019-05-13T16:20:22.353Z,16.49
2019-05-13T16:22:52.668Z,16.41
2019-05-13T16:25:22.172Z,16.37
2019-05-13T16:27:52.064Z,16.29
2019-05-13T16:30:22.244Z,16.21
2019-05-13T16:32:52.082Z,16.17
2019-05-13T16:35:21.591Z,16.13
2019-05-13T16:37:51.770Z,16.05
2019-05-13T16:40:22.297Z,16.08
2019-05-13T16:42:52.023Z,16.16
2019-05-13T16:45:21.875Z,16.22
2019-05-13T16:47:57.046Z,16.12
2019-05-13T16:50:22.330Z,16.08
2019-05-13T16:52:53.108Z,15.94
2019-05-13T16:55:24.039Z,15.88
2019-05-13T16:57:53.275Z,15.76
2019-05-13T17:00:22.960Z,15.63
2019-05-13T17:02:52.401Z,15.52
2019-05-13T17:05:23.119Z,15.37
2019-05-13T17:07:52.498Z,15.41
2019-05-13T17:10:22.599Z,15.34
2019-05-13T17:12:52.435Z,15.35
2019-05-13T17:15:22.043Z,15.27
2019-05-13T17:18:08.364Z,15.30
2019-05-13T17:20:28.639Z,15.08
2019-05-13T17:22:57.875Z,15.06
2019-05-13T17:25:27.109Z,14.93
2019-05-13T17:27:56.527Z,14.93
2019-05-13T17:30:28.013Z,14.98
2019-05-13T17:33:02.282Z,15.17
2019-05-13T17:35:32.810Z,15.22
2019-05-13T17:38:02.296Z,15.26
2019-05-13T17:40:31.621Z,15.38
2019-05-13T17:43:01.335Z,15.27
2019-05-13T17:45:31.301Z,15.31
2019-05-13T17:48:01.200Z,15.17
2019-05-13T17:50:31.519Z,15.20
2019-05-13T17:53:02.035Z,15.17
2019-05-13T17:55:32.629Z,15.17
2019-05-13T17:58:01.942Z,15.07
2019-05-13T18:00:32.240Z,14.90
2019-05-13T18:03:02.102Z,14.99
2019-05-13T18:05:31.567Z,14.88
2019-05-13T18:08:01.881Z,14.86
2019-05-13T18:10:31.875Z,14.84
2019-05-13T18:13:01.878Z,14.79
2019-05-13T18:15:31.720Z,14.73
2019-05-13T18:18:01.428Z,14.62
2019-05-13T18:20:32.189Z,14.44
2019-05-13T18:23:01.758Z,14.30
2019-05-13T18:25:31.819Z,14.18
2019-05-13T18:28:01.675Z,14.03
2019-05-13T18:30:31.793Z,13.96
2019-05-13T18:33:01.504Z,13.91
2019-05-13T18:35:31.492Z,13.66
2019-05-13T18:38:01.482Z,13.52
2019-05-13T18:40:31.548Z,13.40
2019-05-13T18:43:03.543Z,13.38
2019-05-13T18:45:32.378Z,13.26
2019-05-13T18:48:01.795Z,13.16
2019-05-13T18:50:33.828Z,13.09
2019-05-13T18:53:09.341Z,13.16
2019-05-13T18:55:43.867Z,13.14
2019-05-13T18:58:16.877Z,13.19
2019-05-13T19:00:52.075Z,13.17
2019-05-13T19:03:28.371Z,13.24
2019-05-13T19:06:02.327Z,13.11
2019-05-13T19:08:41.634Z,13.13
2019-05-13T19:11:11.775Z,13.11
2019-05-13T19:13:41.657Z,13.14
2019-05-13T19:16:11.974Z,13.00
2019-05-13T19:18:42.302Z,13.03
2019-05-13T19:21:11.966Z,13.00
2019-05-13T19:23:42.649Z,12.98
2019-05-13T19:26:11.945Z,12.95
2019-05-13T19:28:41.283Z,12.97
2019-05-13T19:31:11.556Z,12.87
2019-05-13T19:33:41.641Z,12.82
2019-05-13T19:36:11.791Z,12.87
2019-05-13T19:38:43.094Z,12.80
2019-05-13T19:41:12.627Z,12.88
2019-05-13T19:43:42.133Z,12.81
2019-05-13T19:46:13.364Z,12.82
2019-05-13T19:48:42.980Z,12.77
2019-05-13T19:51:12.340Z,12.71
2019-05-13T19:53:44.555Z,12.67
2019-05-13T19:56:12.879Z,12.71
2019-05-13T19:58:42.123Z,12.63
2019-05-13T20:01:11.778Z,12.60
2019-05-13T20:03:42.341Z,12.62
2019-05-13T20:06:12.296Z,12.59
2019-05-13T20:08:41.666Z,12.54
2019-05-13T20:11:11.483Z,12.60
2019-05-13T20:13:41.782Z,12.59
2019-05-13T20:16:11.842Z,12.52
2019-05-13T20:18:41.554Z,12.58
2019-05-13T20:21:13.490Z,12.55
2019-05-13T20:23:42.114Z,12.48
2019-05-13T20:26:11.475Z,12.41
2019-05-13T20:28:42.025Z,12.35
2019-05-13T20:31:15.139Z,12.34
2019-05-13T20:33:45.916Z,12.32
2019-05-13T20:36:15.221Z,12.19
2019-05-13T20:38:44.487Z,12.10
2019-05-13T20:41:13.729Z,12.08
2019-05-13T20:43:42.990Z,12.06
2019-05-13T20:46:12.260Z,12.03
2019-05-13T20:48:41.504Z,12.02
2019-05-13T20:51:11.343Z,11.97
2019-05-13T20:53:41.302Z,11.87
2019-05-13T20:56:10.901Z,11.84
2019-05-13T20:58:42.031Z,11.76
2019-05-13T21:01:11.221Z,11.68
2019-05-13T21:03:41.945Z,11.66
2019-05-13T21:06:11.780Z,11.68
2019-05-13T21:08:41.563Z,11.67
2019-05-13T21:11:11.559Z,11.69
2019-05-13T21:13:41.313Z,11.67
2019-05-13T21:16:11.395Z,11.52
2019-05-13T21:18:42.135Z,11.57
2019-05-13T21:21:11.949Z,11.51
2019-05-13T21:23:41.819Z,11.59
2019-05-13T21:26:15.038Z,11.59
2019-05-13T21:28:42.307Z,11.61
2019-05-13T21:31:11.765Z,11.62
2019-05-13T21:33:41.000Z,11.47
2019-05-13T21:36:12.270Z,11.56
2019-05-13T21:38:41.625Z,11.63
2019-05-13T21:41:11.763Z,11.47
2019-05-13T21:43:41.507Z,11.50
2019-05-13T21:46:12.021Z,11.53
2019-05-13T21:48:41.701Z,11.52
2019-05-13T21:51:13.489Z,11.53
2019-05-13T21:53:42.287Z,11.54
2019-05-13T21:56:12.170Z,11.53
2019-05-13T21:58:41.731Z,11.47
2019-05-13T22:01:11.105Z,11.46
2019-05-13T22:03:42.001Z,11.46
2019-05-13T22:06:11.252Z,11.52
2019-05-13T22:08:41.291Z,11.50
2019-05-13T22:11:12.023Z,11.42
2019-05-13T22:13:42.043Z,11.49
2019-05-13T22:16:11.347Z,11.51
2019-05-13T22:18:41.808Z,11.53
2019-05-13T22:21:11.837Z,11.61
2019-05-13T22:23:41.305Z,11.59
2019-05-13T22:26:11.716Z,11.64
2019-05-13T22:28:43.706Z,11.55
2019-05-13T22:31:12.944Z,11.54
2019-05-13T22:33:45.107Z,11.48
2019-05-13T22:36:13.151Z,11.47
2019-05-13T22:38:42.738Z,11.43
2019-05-13T22:41:12.023Z,11.37
2019-05-13T22:43:54.654Z,11.40
2019-05-13T22:46:14.258Z,11.30
2019-05-13T22:48:43.018Z,11.28
2019-05-13T22:51:12.446Z,11.07
2019-05-13T22:53:42.183Z,11.09
2019-05-13T22:56:11.836Z,11.08
2019-05-13T22:58:41.272Z,10.97
2019-05-13T23:01:11.560Z,10.96
2019-05-13T23:03:41.283Z,10.97
2019-05-13T23:06:12.069Z,10.97
2019-05-13T23:08:41.727Z,10.98
2019-05-13T23:11:11.098Z,10.97
2019-05-13T23:13:42.196Z,10.83
2019-05-13T23:16:11.603Z,10.76
2019-05-13T23:18:42.120Z,10.67
2019-05-13T23:21:11.810Z,10.65
2019-05-13T23:23:41.051Z,10.69
2019-05-13T23:26:11.870Z,10.53
2019-05-13T23:28:41.648Z,10.30
2019-05-13T23:31:12.345Z,10.47
2019-05-13T23:33:41.801Z,10.36
2019-05-13T23:36:11.944Z,10.32
2019-05-13T23:38:41.576Z,10.41
2019-05-13T23:41:11.528Z,10.50
2019-05-13T23:43:40.968Z,10.39
2019-05-13T23:46:11.734Z,10.44
2019-05-13T23:48:41.360Z,10.40
2019-05-13T23:51:13.009Z,10.33
2019-05-13T23:53:41.871Z,10.44
2019-05-13T23:56:11.257Z,10.32
2019-05-13T23:58:41.359Z,10.35
